sensor_id;sensor_type;location;lat;lon;timestamp;pressure;altitude;pressure_sealevel;temperature;humidity
20987;BME280;10652;50.306;8.570;2023-07-29T00:01:19;97411.38;;;16.91;100.00
20987;BME280;10652;50.306;8.570;2023-07-29T00:05:21;97404.13;;;16.93;100.00
20987;BME280;10652;50.306;8.570;2023-07-29T00:09:23;97402.63;;;17.00;100.00
20987;BME280;10652;50.306;8.570;2023-07-29T00:13:25;97394.19;;;17.06;100.00
20987;BME280;10652;50.306;8.570;2023-07-29T00:17:27;97385.09;;;17.08;100.00
20987;BME280;10652;50.306;8.570;2023-07-29T00:21:29;97378.44;;;17.14;100.00
20987;BME280;10652;50.306;8.570;2023-07-29T00:25:32;97364.09;;;17.17;100.00
20987;BME280;10652;50.306;8.570;2023-07-29T00:29:34;97363.81;;;17.20;100.00
20987;BME280;10652;50.306;8.570;2023-07-29T00:33:36;97358.50;;;17.20;100.00
20987;BME280;10652;50.306;8.570;2023-07-29T00:37:38;97353.09;;;17.21;100.00
20987;BME280;10652;50.306;8.570;2023-07-29T00:41:40;97353.09;;;17.21;100.00
20987;BME280;10652;50.306;8.570;2023-07-29T00:45:43;97351.13;;;17.23;100.00
20987;BME280;10652;50.306;8.570;2023-07-29T00:49:48;97352.69;;;17.26;100.00
20987;BME280;10652;50.306;8.570;2023-07-29T00:53:50;97344.59;;;17.27;100.00
20987;BME280;10652;50.306;8.570;2023-07-29T00:57:52;97347.97;;;17.29;100.00
20987;BME280;10652;50.306;8.570;2023-07-29T01:01:56;97344.34;;;17.30;100.00
20987;BME280;10652;50.306;8.570;2023-07-29T01:06:34;97348.66;;;17.31;100.00
20987;BME280;10652;50.306;8.570;2023-07-29T01:19:20;97328.41;;;17.30;100.00
20987;BME280;10652;50.306;8.570;2023-07-29T01:23:31;97326.97;;;17.26;100.00
20987;BME280;10652;50.306;8.570;2023-07-29T01:27:34;97329.19;;;17.21;100.00
20987;BME280;10652;50.306;8.570;2023-07-29T01:31:43;97328.88;;;17.15;100.00
20987;BME280;10652;50.306;8.570;2023-07-29T01:35:51;97331.34;;;17.06;100.00
20987;BME280;10652;50.306;8.570;2023-07-29T01:39:56;97331.00;;;17.00;100.00
20987;BME280;10652;50.306;8.570;2023-07-29T01:43:59;97327.66;;;16.98;100.00
20987;BME280;10652;50.306;8.570;2023-07-29T01:48:01;97325.22;;;16.95;100.00
20987;BME280;10652;50.306;8.570;2023-07-29T01:52:03;97306.66;;;16.95;100.00
20987;BME280;10652;50.306;8.570;2023-07-29T01:56:06;97304.63;;;16.98;100.00
20987;BME280;10652;50.306;8.570;2023-07-29T02:00:10;97308.53;;;17.04;100.00
20987;BME280;10652;50.306;8.570;2023-07-29T02:04:19;97301.88;;;17.09;100.00
20987;BME280;10652;50.306;8.570;2023-07-29T02:08:22;97311.41;;;17.12;100.00
20987;BME280;10652;50.306;8.570;2023-07-29T02:12:24;97317.69;;;17.11;100.00
20987;BME280;10652;50.306;8.570;2023-07-29T02:16:26;97309.25;;;17.06;100.00
20987;BME280;10652;50.306;8.570;2023-07-29T02:20:28;97318.69;;;16.99;100.00
20987;BME280;10652;50.306;8.570;2023-07-29T02:24:30;97311.34;;;17.02;100.00
20987;BME280;10652;50.306;8.570;2023-07-29T02:28:32;97322.53;;;17.06;100.00
20987;BME280;10652;50.306;8.570;2023-07-29T02:32:35;97308.13;;;17.08;100.00
20987;BME280;10652;50.306;8.570;2023-07-29T02:36:37;97299.50;;;17.06;100.00
20987;BME280;10652;50.306;8.570;2023-07-29T02:40:40;97298.13;;;17.12;100.00
20987;BME280;10652;50.306;8.570;2023-07-29T02:44:43;97286.41;;;17.15;100.00
20987;BME280;10652;50.306;8.570;2023-07-29T02:48:45;97284.59;;;17.15;100.00
20987;BME280;10652;50.306;8.570;2023-07-29T02:52:47;97294.25;;;17.16;100.00
20987;BME280;10652;50.306;8.570;2023-07-29T02:56:53;97293.97;;;17.19;100.00
20987;BME280;10652;50.306;8.570;2023-07-29T03:01:06;97292.03;;;17.21;100.00
20987;BME280;10652;50.306;8.570;2023-07-29T03:05:08;97279.72;;;17.20;100.00
20987;BME280;10652;50.306;8.570;2023-07-29T03:09:11;97265.50;;;17.21;100.00
20987;BME280;10652;50.306;8.570;2023-07-29T03:13:13;97257.78;;;17.18;100.00
20987;BME280;10652;50.306;8.570;2023-07-29T03:17:15;97259.97;;;17.13;100.00
20987;BME280;10652;50.306;8.570;2023-07-29T03:21:17;97255.91;;;17.09;100.00
20987;BME280;10652;50.306;8.570;2023-07-29T03:25:19;97239.09;;;16.99;100.00
20987;BME280;10652;50.306;8.570;2023-07-29T03:29:22;97246.88;;;16.91;100.00
20987;BME280;10652;50.306;8.570;2023-07-29T03:33:25;97249.34;;;16.83;100.00
20987;BME280;10652;50.306;8.570;2023-07-29T03:37:27;97247.06;;;16.78;100.00
20987;BME280;10652;50.306;8.570;2023-07-29T03:41:29;97239.50;;;16.74;100.00
20987;BME280;10652;50.306;8.570;2023-07-29T03:45:31;97246.75;;;16.72;100.00
20987;BME280;10652;50.306;8.570;2023-07-29T03:49:34;97250.63;;;16.67;100.00
20987;BME280;10652;50.306;8.570;2023-07-29T03:53:36;97241.97;;;16.65;100.00
20987;BME280;10652;50.306;8.570;2023-07-29T03:57:38;97250.16;;;16.62;100.00
20987;BME280;10652;50.306;8.570;2023-07-29T04:01:40;97246.09;;;16.58;100.00
20987;BME280;10652;50.306;8.570;2023-07-29T04:05:43;97243.31;;;16.60;100.00
20987;BME280;10652;50.306;8.570;2023-07-29T04:09:45;97252.00;;;16.62;100.00
20987;BME280;10652;50.306;8.570;2023-07-29T04:13:47;97252.69;;;16.64;100.00
20987;BME280;10652;50.306;8.570;2023-07-29T04:17:49;97250.06;;;16.64;100.00
20987;BME280;10652;50.306;8.570;2023-07-29T04:21:51;97245.38;;;16.77;100.00
20987;BME280;10652;50.306;8.570;2023-07-29T04:25:53;97258.72;;;16.87;100.00
20987;BME280;10652;50.306;8.570;2023-07-29T04:29:55;97255.28;;;16.96;100.00
20987;BME280;10652;50.306;8.570;2023-07-29T04:33:58;97246.66;;;17.03;100.00
20987;BME280;10652;50.306;8.570;2023-07-29T04:38:00;97249.75;;;17.08;100.00
20987;BME280;10652;50.306;8.570;2023-07-29T04:42:03;97237.78;;;17.14;100.00
20987;BME280;10652;50.306;8.570;2023-07-29T04:46:08;97246.19;;;17.19;100.00
20987;BME280;10652;50.306;8.570;2023-07-29T04:50:11;97236.97;;;17.23;100.00
20987;BME280;10652;50.306;8.570;2023-07-29T04:54:13;97240.09;;;17.28;100.00
20987;BME280;10652;50.306;8.570;2023-07-29T04:58:15;97242.22;;;17.34;100.00
20987;BME280;10652;50.306;8.570;2023-07-29T05:02:18;97233.50;;;17.53;100.00
20987;BME280;10652;50.306;8.570;2023-07-29T05:06:20;97231.19;;;17.79;100.00
20987;BME280;10652;50.306;8.570;2023-07-29T05:10:22;97220.47;;;18.09;100.00
20987;BME280;10652;50.306;8.570;2023-07-29T05:14:24;97223.25;;;18.75;100.00
20987;BME280;10652;50.306;8.570;2023-07-29T05:18:26;97220.78;;;19.57;100.00
20987;BME280;10652;50.306;8.570;2023-07-29T05:22:28;97224.38;;;20.46;100.00
20987;BME280;10652;50.306;8.570;2023-07-29T05:26:31;97224.84;;;20.41;100.00
20987;BME280;10652;50.306;8.570;2023-07-29T05:30:33;97223.06;;;20.85;100.00
20987;BME280;10652;50.306;8.570;2023-07-29T05:34:41;97232.16;;;20.75;100.00
20987;BME280;10652;50.306;8.570;2023-07-29T05:38:43;97238.81;;;20.96;100.00
20987;BME280;10652;50.306;8.570;2023-07-29T05:42:45;97243.00;;;20.38;99.39
20987;BME280;10652;50.306;8.570;2023-07-29T05:46:47;97234.94;;;19.85;100.00
20987;BME280;10652;50.306;8.570;2023-07-29T05:50:49;97242.97;;;19.48;100.00
20987;BME280;10652;50.306;8.570;2023-07-29T05:54:52;97259.59;;;19.22;100.00
20987;BME280;10652;50.306;8.570;2023-07-29T05:58:54;97251.63;;;19.03;100.00
20987;BME280;10652;50.306;8.570;2023-07-29T06:02:56;97255.97;;;18.95;100.00
20987;BME280;10652;50.306;8.570;2023-07-29T06:06:59;97262.16;;;18.95;100.00
20987;BME280;10652;50.306;8.570;2023-07-29T06:11:01;97268.59;;;19.02;100.00
20987;BME280;10652;50.306;8.570;2023-07-29T06:15:04;97267.22;;;18.98;100.00
20987;BME280;10652;50.306;8.570;2023-07-29T06:19:06;97276.72;;;18.91;100.00
20987;BME280;10652;50.306;8.570;2023-07-29T06:23:10;97282.34;;;18.88;100.00
20987;BME280;10652;50.306;8.570;2023-07-29T06:27:12;97273.53;;;18.88;100.00
20987;BME280;10652;50.306;8.570;2023-07-29T06:31:14;97266.38;;;18.88;100.00
20987;BME280;10652;50.306;8.570;2023-07-29T06:35:17;97265.84;;;18.84;100.00
20987;BME280;10652;50.306;8.570;2023-07-29T06:39:19;97256.16;;;18.74;100.00
20987;BME280;10652;50.306;8.570;2023-07-29T06:43:21;97245.41;;;18.66;100.00
20987;BME280;10652;50.306;8.570;2023-07-29T06:47:23;97242.31;;;18.61;100.00
20987;BME280;10652;50.306;8.570;2023-07-29T06:51:25;97259.97;;;18.62;100.00
20987;BME280;10652;50.306;8.570;2023-07-29T06:55:27;97270.31;;;18.65;100.00
20987;BME280;10652;50.306;8.570;2023-07-29T06:59:32;97276.50;;;18.56;100.00
20987;BME280;10652;50.306;8.570;2023-07-29T07:03:35;97281.69;;;18.48;100.00
20987;BME280;10652;50.306;8.570;2023-07-29T07:07:37;97280.97;;;18.46;100.00
20987;BME280;10652;50.306;8.570;2023-07-29T07:11:39;97274.53;;;18.38;100.00
20987;BME280;10652;50.306;8.570;2023-07-29T07:15:41;97288.81;;;18.37;100.00
20987;BME280;10652;50.306;8.570;2023-07-29T07:19:44;97277.63;;;18.34;100.00
20987;BME280;10652;50.306;8.570;2023-07-29T07:23:46;97274.09;;;18.33;100.00
20987;BME280;10652;50.306;8.570;2023-07-29T07:27:48;97277.31;;;18.37;100.00
20987;BME280;10652;50.306;8.570;2023-07-29T07:31:52;97296.66;;;18.39;100.00
20987;BME280;10652;50.306;8.570;2023-07-29T07:35:54;97299.03;;;18.52;100.00
20987;BME280;10652;50.306;8.570;2023-07-29T07:39:56;97300.44;;;18.75;100.00
20987;BME280;10652;50.306;8.570;2023-07-29T07:43:58;97309.81;;;18.98;100.00
20987;BME280;10652;50.306;8.570;2023-07-29T07:48:00;97305.69;;;19.23;100.00
20987;BME280;10652;50.306;8.570;2023-07-29T07:52:03;97305.72;;;19.60;100.00
20987;BME280;10652;50.306;8.570;2023-07-29T07:56:06;97305.88;;;19.95;100.00
20987;BME280;10652;50.306;8.570;2023-07-29T08:00:09;97313.06;;;20.12;100.00
20987;BME280;10652;50.306;8.570;2023-07-29T08:04:14;97302.19;;;20.24;100.00
20987;BME280;10652;50.306;8.570;2023-07-29T08:08:16;97298.94;;;20.65;100.00
20987;BME280;10652;50.306;8.570;2023-07-29T08:12:18;97303.78;;;21.23;100.00
20987;BME280;10652;50.306;8.570;2023-07-29T08:16:21;97307.16;;;21.51;100.00
20987;BME280;10652;50.306;8.570;2023-07-29T08:20:23;97301.59;;;22.12;98.35
20987;BME280;10652;50.306;8.570;2023-07-29T08:24:25;97299.06;;;22.52;91.94
20987;BME280;10652;50.306;8.570;2023-07-29T08:28:38;97302.06;;;22.73;87.87
20987;BME280;10652;50.306;8.570;2023-07-29T08:32:40;97298.91;;;22.78;82.98
20987;BME280;10652;50.306;8.570;2023-07-29T08:36:42;97309.75;;;22.52;81.38
20987;BME280;10652;50.306;8.570;2023-07-29T08:41:34;97304.06;;;22.55;81.62
20987;BME280;10652;50.306;8.570;2023-07-29T08:45:09;97309.81;;;22.93;79.76
20987;BME280;10652;50.306;8.570;2023-07-29T08:49:13;97312.16;;;23.28;76.39
20987;BME280;10652;50.306;8.570;2023-07-29T08:53:16;97306.25;;;23.41;73.40
20987;BME280;10652;50.306;8.570;2023-07-29T08:57:20;97307.53;;;23.77;71.55
20987;BME280;10652;50.306;8.570;2023-07-29T09:01:22;97308.22;;;23.79;70.20
20987;BME280;10652;50.306;8.570;2023-07-29T09:05:24;97304.84;;;23.77;68.35
20987;BME280;10652;50.306;8.570;2023-07-29T09:09:26;97298.28;;;23.88;67.55
20987;BME280;10652;50.306;8.570;2023-07-29T09:13:28;97297.66;;;23.78;64.66
20987;BME280;10652;50.306;8.570;2023-07-29T09:17:32;97293.34;;;23.60;65.08
20987;BME280;10652;50.306;8.570;2023-07-29T09:21:38;97292.50;;;23.52;64.83
20987;BME280;10652;50.306;8.570;2023-07-29T09:25:41;97306.72;;;23.68;65.03
20987;BME280;10652;50.306;8.570;2023-07-29T09:29:43;97294.16;;;24.08;62.15
20987;BME280;10652;50.306;8.570;2023-07-29T09:33:45;97295.13;;;24.77;56.86
20987;BME280;10652;50.306;8.570;2023-07-29T09:37:47;97300.38;;;25.16;52.57
20987;BME280;10652;50.306;8.570;2023-07-29T09:41:50;97298.19;;;25.34;50.28
20987;BME280;10652;50.306;8.570;2023-07-29T09:45:53;97302.38;;;25.36;51.23
20987;BME280;10652;50.306;8.570;2023-07-29T09:49:55;97302.91;;;25.32;52.32
20987;BME280;10652;50.306;8.570;2023-07-29T09:53:57;97298.97;;;25.05;51.87
20987;BME280;10652;50.306;8.570;2023-07-29T09:58:01;97296.75;;;24.86;53.00
20987;BME280;10652;50.306;8.570;2023-07-29T10:02:16;97300.75;;;24.90;53.76
20987;BME280;10652;50.306;8.570;2023-07-29T10:06:18;97292.38;;;25.08;52.82
20987;BME280;10652;50.306;8.570;2023-07-29T10:10:20;97291.88;;;25.27;51.92
20987;BME280;10652;50.306;8.570;2023-07-29T10:14:23;97287.84;;;25.08;51.68
20987;BME280;10652;50.306;8.570;2023-07-29T10:18:26;97275.38;;;24.70;52.52
20987;BME280;10652;50.306;8.570;2023-07-29T10:22:33;97270.53;;;24.42;53.66
20987;BME280;10652;50.306;8.570;2023-07-29T10:26:38;97276.84;;;24.19;54.68
20987;BME280;10652;50.306;8.570;2023-07-29T10:30:44;97275.28;;;24.32;55.64
20987;BME280;10652;50.306;8.570;2023-07-29T10:34:46;97284.13;;;24.41;55.40
20987;BME280;10652;50.306;8.570;2023-07-29T10:38:49;97277.56;;;24.43;54.75
20987;BME280;10652;50.306;8.570;2023-07-29T10:43:02;97279.38;;;24.12;55.67
20987;BME280;10652;50.306;8.570;2023-07-29T10:47:24;97285.31;;;23.99;56.74
20987;BME280;10652;50.306;8.570;2023-07-29T10:51:37;97286.56;;;23.81;56.77
20987;BME280;10652;50.306;8.570;2023-07-29T10:55:39;97294.50;;;23.58;56.63
20987;BME280;10652;50.306;8.570;2023-07-29T10:59:56;97310.81;;;23.24;58.10
20987;BME280;10652;50.306;8.570;2023-07-29T11:08:27;97318.63;;;22.53;73.42
20987;BME280;10652;50.306;8.570;2023-07-29T11:12:46;97305.25;;;22.77;73.42
20987;BME280;10652;50.306;8.570;2023-07-29T11:16:50;97305.94;;;23.36;73.65
20987;BME280;10652;50.306;8.570;2023-07-29T11:20:53;97308.94;;;23.65;72.01
20987;BME280;10652;50.306;8.570;2023-07-29T11:24:56;97295.88;;;23.38;72.21
20987;BME280;10652;50.306;8.570;2023-07-29T11:28:58;97295.44;;;23.02;73.75
20987;BME280;10652;50.306;8.570;2023-07-29T11:33:01;97283.19;;;22.91;74.57
20987;BME280;10652;50.306;8.570;2023-07-29T11:37:03;97285.72;;;22.93;75.80
20987;BME280;10652;50.306;8.570;2023-07-29T11:41:08;97283.00;;;23.25;75.31
20987;BME280;10652;50.306;8.570;2023-07-29T11:45:10;97285.69;;;23.33;74.22
20987;BME280;10652;50.306;8.570;2023-07-29T11:49:13;97274.56;;;23.44;74.52
20987;BME280;10652;50.306;8.570;2023-07-29T11:53:15;97286.66;;;23.40;73.01
20987;BME280;10652;50.306;8.570;2023-07-29T11:57:19;97284.38;;;23.21;71.81
20987;BME280;10652;50.306;8.570;2023-07-29T12:01:22;97285.03;;;22.99;71.71
20987;BME280;10652;50.306;8.570;2023-07-29T12:05:24;97283.53;;;22.88;73.63
20987;BME280;10652;50.306;8.570;2023-07-29T12:09:27;97289.88;;;22.95;74.04
20987;BME280;10652;50.306;8.570;2023-07-29T12:13:30;97276.31;;;23.29;75.06
20987;BME280;10652;50.306;8.570;2023-07-29T12:17:39;97281.97;;;23.26;75.13
20987;BME280;10652;50.306;8.570;2023-07-29T12:21:41;97282.19;;;23.16;73.23
20987;BME280;10652;50.306;8.570;2023-07-29T12:25:44;97287.06;;;22.97;72.25
20987;BME280;10652;50.306;8.570;2023-07-29T12:29:46;97282.34;;;22.74;72.87
20987;BME280;10652;50.306;8.570;2023-07-29T12:33:55;97286.66;;;22.67;73.09
20987;BME280;10652;50.306;8.570;2023-07-29T12:37:59;97273.66;;;22.89;74.05
20987;BME280;10652;50.306;8.570;2023-07-29T12:42:03;97271.63;;;23.23;71.18
20987;BME280;10652;50.306;8.570;2023-07-29T12:46:05;97268.91;;;23.39;66.46
20987;BME280;10652;50.306;8.570;2023-07-29T12:50:08;97279.31;;;23.34;62.27
20987;BME280;10652;50.306;8.570;2023-07-29T12:54:10;97275.59;;;23.43;60.02
20987;BME280;10652;50.306;8.570;2023-07-29T12:58:12;97264.50;;;23.71;59.46
20987;BME280;10652;50.306;8.570;2023-07-29T13:02:15;97265.34;;;24.02;59.88
20987;BME280;10652;50.306;8.570;2023-07-29T13:06:17;97259.19;;;24.32;59.09
20987;BME280;10652;50.306;8.570;2023-07-29T13:10:20;97256.56;;;24.47;57.30
20987;BME280;10652;50.306;8.570;2023-07-29T13:14:22;97260.97;;;24.63;57.73
20987;BME280;10652;50.306;8.570;2023-07-29T13:18:24;97262.41;;;24.73;57.07
20987;BME280;10652;50.306;8.570;2023-07-29T13:22:26;97267.31;;;24.70;56.50
20987;BME280;10652;50.306;8.570;2023-07-29T13:26:28;97264.31;;;24.65;55.47
20987;BME280;10652;50.306;8.570;2023-07-29T13:30:30;97271.53;;;24.64;55.35
20987;BME280;10652;50.306;8.570;2023-07-29T13:34:33;97267.53;;;24.83;55.00
20987;BME280;10652;50.306;8.570;2023-07-29T13:38:36;97272.38;;;25.10;56.84
20987;BME280;10652;50.306;8.570;2023-07-29T13:42:39;97262.13;;;25.28;56.62
20987;BME280;10652;50.306;8.570;2023-07-29T13:46:41;97262.22;;;25.20;53.71
20987;BME280;10652;50.306;8.570;2023-07-29T13:50:43;97264.78;;;25.14;53.69
20987;BME280;10652;50.306;8.570;2023-07-29T13:54:45;97270.53;;;25.11;53.05
20987;BME280;10652;50.306;8.570;2023-07-29T13:58:47;97266.13;;;24.95;52.68
20987;BME280;10652;50.306;8.570;2023-07-29T14:02:50;97263.94;;;25.13;52.42
20987;BME280;10652;50.306;8.570;2023-07-29T14:06:52;97268.78;;;25.32;52.10
20987;BME280;10652;50.306;8.570;2023-07-29T14:11:00;97262.84;;;25.22;48.81
20987;BME280;10652;50.306;8.570;2023-07-29T14:15:04;97273.50;;;25.16;48.82
20987;BME280;10652;50.306;8.570;2023-07-29T14:19:06;97266.72;;;25.05;48.13
20987;BME280;10652;50.306;8.570;2023-07-29T14:23:08;97271.88;;;24.92;48.82
20987;BME280;10652;50.306;8.570;2023-07-29T14:27:10;97264.41;;;25.02;49.52
20987;BME280;10652;50.306;8.570;2023-07-29T14:31:12;97261.41;;;25.34;48.74
20987;BME280;10652;50.306;8.570;2023-07-29T14:35:15;97263.31;;;25.40;46.41
20987;BME280;10652;50.306;8.570;2023-07-29T14:39:17;97265.38;;;25.38;46.31
20987;BME280;10652;50.306;8.570;2023-07-29T14:43:19;97267.31;;;25.44;47.04
20987;BME280;10652;50.306;8.570;2023-07-29T14:47:22;97269.66;;;25.48;45.55
20987;BME280;10652;50.306;8.570;2023-07-29T14:51:24;97270.34;;;25.27;45.53
20987;BME280;10652;50.306;8.570;2023-07-29T14:55:26;97268.97;;;25.16;45.96
20987;BME280;10652;50.306;8.570;2023-07-29T14:59:28;97264.47;;;25.09;46.10
20987;BME280;10652;50.306;8.570;2023-07-29T15:03:30;97267.00;;;25.10;46.37
20987;BME280;10652;50.306;8.570;2023-07-29T15:07:33;97256.16;;;25.18;45.08
20987;BME280;10652;50.306;8.570;2023-07-29T15:11:35;97259.19;;;25.01;44.79
20987;BME280;10652;50.306;8.570;2023-07-29T15:15:44;97262.53;;;24.80;45.33
20987;BME280;10652;50.306;8.570;2023-07-29T15:19:47;97260.56;;;24.74;46.20
20987;BME280;10652;50.306;8.570;2023-07-29T15:23:51;97259.66;;;24.59;45.85
20987;BME280;10652;50.306;8.570;2023-07-29T15:27:53;97263.72;;;24.54;46.87
20987;BME280;10652;50.306;8.570;2023-07-29T15:31:56;97269.84;;;24.40;46.78
20987;BME280;10652;50.306;8.570;2023-07-29T15:35:58;97258.81;;;24.35;45.45
20987;BME280;10652;50.306;8.570;2023-07-29T15:40:00;97264.69;;;24.39;45.91
20987;BME280;10652;50.306;8.570;2023-07-29T15:44:02;97255.81;;;24.30;47.97
20987;BME280;10652;50.306;8.570;2023-07-29T15:48:04;97253.38;;;24.12;50.31
20987;BME280;10652;50.306;8.570;2023-07-29T15:52:07;97271.94;;;24.30;51.52
20987;BME280;10652;50.306;8.570;2023-07-29T15:56:13;97271.31;;;24.20;52.05
20987;BME280;10652;50.306;8.570;2023-07-29T16:00:15;97264.53;;;24.01;52.90
20987;BME280;10652;50.306;8.570;2023-07-29T16:04:17;97269.69;;;24.03;53.18
20987;BME280;10652;50.306;8.570;2023-07-29T16:08:19;97275.56;;;24.06;51.78
20987;BME280;10652;50.306;8.570;2023-07-29T16:12:22;97259.63;;;24.05;52.97
20987;BME280;10652;50.306;8.570;2023-07-29T16:16:24;97273.13;;;23.89;52.84
20987;BME280;10652;50.306;8.570;2023-07-29T16:20:26;97280.91;;;23.67;52.82
20987;BME280;10652;50.306;8.570;2023-07-29T16:24:28;97268.53;;;23.50;52.70
20987;BME280;10652;50.306;8.570;2023-07-29T16:28:30;97265.69;;;23.52;53.10
20987;BME280;10652;50.306;8.570;2023-07-29T16:32:32;97261.34;;;23.51;51.38
20987;BME280;10652;50.306;8.570;2023-07-29T16:36:35;97267.38;;;23.53;51.12
20987;BME280;10652;50.306;8.570;2023-07-29T16:40:37;97271.41;;;23.57;50.24
20987;BME280;10652;50.306;8.570;2023-07-29T16:44:42;97276.59;;;23.66;50.73
20987;BME280;10652;50.306;8.570;2023-07-29T16:48:44;97274.88;;;23.74;51.13
20987;BME280;10652;50.306;8.570;2023-07-29T16:52:47;97275.91;;;23.64;50.73
20987;BME280;10652;50.306;8.570;2023-07-29T16:56:50;97275.94;;;23.48;50.54
20987;BME280;10652;50.306;8.570;2023-07-29T17:00:53;97269.72;;;23.48;50.87
20987;BME280;10652;50.306;8.570;2023-07-29T17:04:55;97276.59;;;23.58;50.72
20987;BME280;10652;50.306;8.570;2023-07-29T17:08:57;97268.72;;;23.57;50.42
20987;BME280;10652;50.306;8.570;2023-07-29T17:12:59;97275.09;;;23.48;49.70
20987;BME280;10652;50.306;8.570;2023-07-29T17:17:01;97281.16;;;23.34;49.81
20987;BME280;10652;50.306;8.570;2023-07-29T17:21:04;97283.66;;;23.27;50.46
20987;BME280;10652;50.306;8.570;2023-07-29T17:25:07;97279.81;;;23.21;50.35
20987;BME280;10652;50.306;8.570;2023-07-29T17:29:09;97279.66;;;23.15;49.96
20987;BME280;10652;50.306;8.570;2023-07-29T17:33:11;97279.66;;;23.15;50.24
20987;BME280;10652;50.306;8.570;2023-07-29T17:37:13;97274.81;;;23.10;49.84
20987;BME280;10652;50.306;8.570;2023-07-29T17:41:15;97280.69;;;22.98;50.32
20987;BME280;10652;50.306;8.570;2023-07-29T17:45:17;97272.16;;;22.86;51.18
20987;BME280;10652;50.306;8.570;2023-07-29T17:49:20;97277.28;;;22.71;51.61
20987;BME280;10652;50.306;8.570;2023-07-29T17:53:22;97280.81;;;22.56;51.66
20987;BME280;10652;50.306;8.570;2023-07-29T17:57:24;97285.97;;;22.49;51.78
20987;BME280;10652;50.306;8.570;2023-07-29T18:01:28;97275.09;;;22.43;52.14
20987;BME280;10652;50.306;8.570;2023-07-29T18:05:30;97291.16;;;22.34;52.15
20987;BME280;10652;50.306;8.570;2023-07-29T18:09:32;97294.63;;;22.27;52.59
20987;BME280;10652;50.306;8.570;2023-07-29T18:13:34;97298.13;;;22.19;52.85
20987;BME280;10652;50.306;8.570;2023-07-29T18:17:37;97299.59;;;22.14;53.20
20987;BME280;10652;50.306;8.570;2023-07-29T18:21:39;97309.28;;;22.07;54.06
20987;BME280;10652;50.306;8.570;2023-07-29T18:25:42;97310.25;;;21.98;54.06
20987;BME280;10652;50.306;8.570;2023-07-29T18:29:44;97307.69;;;21.88;54.51
20987;BME280;10652;50.306;8.570;2023-07-29T18:33:47;97305.78;;;21.80;54.92
20987;BME280;10652;50.306;8.570;2023-07-29T18:37:49;97310.44;;;21.70;55.46
20987;BME280;10652;50.306;8.570;2023-07-29T18:41:55;97309.72;;;21.60;56.24
20987;BME280;10652;50.306;8.570;2023-07-29T18:45:57;97313.66;;;21.48;56.46
20987;BME280;10652;50.306;8.570;2023-07-29T18:50:01;97327.25;;;21.37;57.23
20987;BME280;10652;50.306;8.570;2023-07-29T18:54:05;97331.84;;;21.27;57.43
20987;BME280;10652;50.306;8.570;2023-07-29T18:58:07;97326.06;;;21.14;57.80
20987;BME280;10652;50.306;8.570;2023-07-29T19:02:09;97336.31;;;21.00;58.36
20987;BME280;10652;50.306;8.570;2023-07-29T19:06:11;97332.50;;;20.85;58.90
20987;BME280;10652;50.306;8.570;2023-07-29T19:10:14;97342.06;;;20.70;60.08
20987;BME280;10652;50.306;8.570;2023-07-29T19:14:16;97345.38;;;20.54;60.93
20987;BME280;10652;50.306;8.570;2023-07-29T19:18:18;97356.09;;;20.45;61.94
20987;BME280;10652;50.306;8.570;2023-07-29T19:22:20;97370.66;;;20.33;62.52
20987;BME280;10652;50.306;8.570;2023-07-29T19:26:22;97363.84;;;20.21;65.46
20987;BME280;10652;50.306;8.570;2023-07-29T19:30:24;97363.19;;;20.09;71.38
20987;BME280;10652;50.306;8.570;2023-07-29T19:34:27;97376.34;;;19.93;74.50
20987;BME280;10652;50.306;8.570;2023-07-29T19:38:29;97370.75;;;19.77;76.94
20987;BME280;10652;50.306;8.570;2023-07-29T19:42:31;97370.09;;;19.65;77.83
20987;BME280;10652;50.306;8.570;2023-07-29T19:46:33;97379.34;;;19.61;78.59
20987;BME280;10652;50.306;8.570;2023-07-29T19:50:40;97375.16;;;19.58;79.83
20987;BME280;10652;50.306;8.570;2023-07-29T19:54:42;97370.53;;;19.51;80.33
20987;BME280;10652;50.306;8.570;2023-07-29T19:58:44;97364.69;;;19.38;79.64
20987;BME280;10652;50.306;8.570;2023-07-29T20:02:47;97369.47;;;19.24;80.23
20987;BME280;10652;50.306;8.570;2023-07-29T20:06:49;97376.50;;;19.16;81.37
20987;BME280;10652;50.306;8.570;2023-07-29T20:10:55;97370.44;;;19.04;82.34
20987;BME280;10652;50.306;8.570;2023-07-29T20:14:57;97362.47;;;18.95;83.12
20987;BME280;10652;50.306;8.570;2023-07-29T20:19:02;97365.53;;;18.90;83.77
20987;BME280;10652;50.306;8.570;2023-07-29T20:23:04;97380.09;;;18.86;84.16
20987;BME280;10652;50.306;8.570;2023-07-29T20:27:08;97384.75;;;18.84;84.45
20987;BME280;10652;50.306;8.570;2023-07-29T20:31:10;97380.69;;;18.80;84.46
20987;BME280;10652;50.306;8.570;2023-07-29T20:35:12;97373.38;;;18.72;85.07
20987;BME280;10652;50.306;8.570;2023-07-29T20:39:14;97377.47;;;18.67;85.25
20987;BME280;10652;50.306;8.570;2023-07-29T20:43:17;97384.84;;;18.54;87.04
20987;BME280;10652;50.306;8.570;2023-07-29T20:47:19;97391.72;;;18.56;87.46
20987;BME280;10652;50.306;8.570;2023-07-29T20:51:22;97384.03;;;18.53;88.34
20987;BME280;10652;50.306;8.570;2023-07-29T20:55:25;97381.22;;;18.55;90.20
20987;BME280;10652;50.306;8.570;2023-07-29T20:59:27;97375.19;;;18.53;90.79
20987;BME280;10652;50.306;8.570;2023-07-29T21:03:29;97366.22;;;18.54;90.17
20987;BME280;10652;50.306;8.570;2023-07-29T21:07:34;97375.34;;;18.61;89.14
20987;BME280;10652;50.306;8.570;2023-07-29T21:11:36;97376.75;;;18.65;88.43
20987;BME280;10652;50.306;8.570;2023-07-29T21:15:38;97380.81;;;18.69;88.06
20987;BME280;10652;50.306;8.570;2023-07-29T21:19:40;97383.47;;;18.69;87.57
20987;BME280;10652;50.306;8.570;2023-07-29T21:23:43;97390.75;;;18.67;89.15
20987;BME280;10652;50.306;8.570;2023-07-29T21:27:45;97390.75;;;18.67;88.64
20987;BME280;10652;50.306;8.570;2023-07-29T21:31:47;97379.13;;;18.68;88.41